首页
METAR-TAF:

METAR-TAF

机场 :

卡迪夫機場

加的夫, 威尔士

纬度: 51-24N, 经度: 003-21W, 海拔: 67米

当前天气观测

该预报发布于15分钟前的23:50 UTC
风速11节,风向东转东北
温度 4°C
湿度 93%
气压 1028 hPa
能見度: 4300

METAR: EGFF 022350Z AUTO 07011KT 4300 HZ NCD 04/03 Q1028

时间: 00:05 (00:05 UTC)

预报

该预报发布于1小时和1分钟前的23:04 UTC
预报有效从03日的 00点(UTC)到 03日的 24点(UTC)
风速8节,风向东转东北
能見度: 5000
少量云层高于1000英尺
成为
从 03日的 00点(UTC)到 03日的 03点(UTC)
能見度: 3000
多云层高于400英尺
轻雾
几率 30% :
短暂存在
从 03日的 03点(UTC)到 03日的 09点(UTC)
能見度: 6000
散云层高于800英尺
多云层高于2500英尺
成为
从 03日的 09点(UTC)到 03日的 12点(UTC)
能見度: 7000
散云层高于1000英尺
多云层高于2500英尺
短暂存在
从 03日的 09点(UTC)到 03日的 12点(UTC)
短暂存在
从 03日的 12点(UTC)到 03日的 24点(UTC)
能見度: 3000
多云层高于600英尺
几率 30% :
短暂存在
从 03日的 12点(UTC)到 03日的 18点(UTC)
能見度: 1400
多云层高于400英尺
大阵雨
几率 30%
从 03日的 21点(UTC)到 03日的 24点(UTC)
多云层高于400英尺

TAF: EGFF 022304Z 0300/0324 07008KT 5000 HZ FEW010 BECMG 0300/0303 3000 BR BKN004 PROB30 TEMPO 0303/0309 6000 RA SCT008 BKN025 BECMG 0309/0312 7000 NSW SCT010 BKN025 TEMPO 0309/0312 RA TEMPO 0312/0324 3000 RA BKN006 PROB30 TEMPO 0312/0318 1400 +SHRA BKN004 PROB30 0321/0324 BKN004

超过4000个机场的气象观测和天气预报(METAR&TAF报告)。

可查询的气象台以黄色和红色小点在地图上表示。

将鼠标移到小点上方,可查看气象台名称。

然后点击查看天气观测和预报。

如需切换地图:点击带黑十字的绿色按钮放大地图;点击带横线的绿色按钮缩小地图;或者点击绿色箭头查看邻近地区的地图。


METAR-TAF: